Time;durP1;ratioP1;P1;durP2;ratioP2;P2;SDS_P1;SDS_P2;PMS_P1;PMS_P2;Temp;Humidity;BMP_temperature;BMP_pressure;BME280_temperature;BME280_humidity;BME280_pressure;Samples;Min_cycle;Max_cycle;Signal;HPM_P1;HPM_P2
2021/10/11 00:00:42;;;;;;;6.77;6.03;;;4.30;99.90;;;;;;5018017;28;20869;-81
2021/10/11 00:03:09;;;;;;;14.63;7.30;;;4.60;99.90;;;;;;5018807;28;20397;-82
2021/10/11 00:05:35;;;;;;;12.27;6.90;;;4.80;99.90;;;;;;5018582;28;20178;-82
2021/10/11 00:08:01;;;;;;;10.90;6.63;;;4.70;99.90;;;;;;5019125;28;20397;-82
2021/10/11 00:10:27;;;;;;;9.57;7.00;;;5.00;99.90;;;;;;5019021;28;20492;-82
2021/10/11 00:12:54;;;;;;;9.10;8.20;;;5.20;99.90;;;;;;5019417;28;20397;-81
2021/10/11 00:15:21;;;;;;;6.47;5.87;;;5.40;99.90;;;;;;5018738;28;20392;-81
2021/10/11 00:17:47;;;;;;;12.23;6.40;;;5.40;99.90;;;;;;5019115;28;20869;-81
2021/10/11 00:20:15;;;;;;;9.10;5.93;;;5.60;99.90;;;;;;5017000;28;20494;-82
2021/10/11 00:22:41;;;;;;;8.43;7.63;;;5.00;99.90;;;;;;5017642;28;20237;-80
2021/10/11 00:25:08;;;;;;;8.67;6.30;;;5.00;99.90;;;;;;5016894;28;20412;-80
2021/10/11 00:27:37;;;;;;;8.10;6.47;;;4.60;99.90;;;;;;5018477;28;20419;-83
2021/10/11 00:30:06;;;;;;;9.63;6.43;;;4.30;99.90;;;;;;5017981;28;20403;-82
2021/10/11 00:32:32;;;;;;;8.07;6.13;;;4.40;99.90;;;;;;5017655;28;20467;-81
2021/10/11 00:34:58;;;;;;;11.13;6.93;;;4.40;99.90;;;;;;5018435;28;20399;-81
2021/10/11 00:37:24;;;;;;;7.77;7.13;;;4.20;99.90;;;;;;5016920;28;20407;-81
2021/10/11 00:39:49;;;;;;;10.97;7.37;;;4.30;99.90;;;;;;5016691;28;20773;-81
2021/10/11 00:42:15;;;;;;;15.10;7.40;;;4.30;99.90;;;;;;5017012;28;20154;-81
2021/10/11 00:44:43;;;;;;;7.97;6.93;;;4.20;99.90;;;;;;5018597;28;20197;-81
2021/10/11 00:47:09;;;;;;;7.13;5.00;;;4.20;99.90;;;;;;5016469;28;20880;-82
2021/10/11 00:49:35;;;;;;;8.53;6.00;;;4.40;99.90;;;;;;5018072;28;20439;-81
2021/10/11 00:52:02;;;;;;;7.20;5.90;;;4.30;99.90;;;;;;5017170;28;20245;-82
2021/10/11 00:54:29;;;;;;;9.17;7.00;;;4.20;99.90;;;;;;5016373;28;20408;-82
2021/10/11 00:56:55;;;;;;;7.70;6.03;;;4.20;99.90;;;;;;5016818;28;20453;-82
2021/10/11 00:59:20;;;;;;;9.27;6.30;;;4.10;99.90;;;;;;5019003;28;20420;-81
2021/10/11 01:01:46;;;;;;;11.87;6.80;;;4.50;99.90;;;;;;5024711;28;20444;-83
2021/10/11 01:04:13;;;;;;;9.03;6.60;;;4.60;99.90;;;;;;5024881;28;20161;-82
2021/10/11 01:06:40;;;;;;;9.10;6.47;;;4.80;99.90;;;;;;5022787;28;20222;-81
2021/10/11 01:09:08;;;;;;;8.87;7.03;;;5.00;99.90;;;;;;5020076;28;20417;-81
2021/10/11 01:11:35;;;;;;;11.37;6.70;;;5.30;99.90;;;;;;5018142;28;20408;-81
2021/10/11 01:14:01;;;;;;;9.90;5.60;;;5.80;99.90;;;;;;5017141;28;20457;-82
2021/10/11 01:16:27;;;;;;;11.60;6.90;;;6.00;99.90;;;;;;5018387;28;20396;-81
2021/10/11 01:18:54;;;;;;;10.13;6.93;;;6.10;99.90;;;;;;5018352;28;20446;-82
2021/10/11 01:21:20;;;;;;;13.50;6.77;;;6.30;99.90;;;;;;5017642;28;20480;-80
2021/10/11 01:23:45;;;;;;;11.40;6.87;;;6.40;99.90;;;;;;5018183;28;20388;-82
2021/10/11 01:26:11;;;;;;;7.90;6.70;;;6.50;99.90;;;;;;5018036;28;20192;-82
2021/10/11 01:28:37;;;;;;;8.90;7.97;;;6.60;99.90;;;;;;5017935;28;20219;-79
2021/10/11 01:31:03;;;;;;;13.03;8.07;;;6.60;99.90;;;;;;5018137;28;20856;-82
2021/10/11 01:33:29;;;;;;;9.50;6.80;;;6.60;99.90;;;;;;5017482;28;20777;-81
2021/10/11 01:35:55;;;;;;;12.17;8.00;;;6.50;99.90;;;;;;5017971;28;20397;-81
2021/10/11 01:38:21;;;;;;;12.97;8.97;;;6.50;99.90;;;;;;5017595;28;20185;-81
2021/10/11 01:40:47;;;;;;;13.47;8.63;;;6.40;99.90;;;;;;5019631;28;20689;-81
2021/10/11 01:43:13;;;;;;;11.33;7.77;;;6.30;99.90;;;;;;5021710;28;20165;-80
2021/10/11 01:45:43;;;;;;;11.57;7.17;;;6.40;99.90;;;;;;5022179;28;20161;-81
2021/10/11 01:48:09;;;;;;;10.87;6.60;;;6.40;99.90;;;;;;5021203;28;20610;-81
2021/10/11 01:50:35;;;;;;;13.40;5.90;;;6.20;99.90;;;;;;5019437;28;20403;-82
2021/10/11 01:53:01;;;;;;;6.87;5.77;;;4.60;99.90;;;;;;5021296;28;20252;-82
2021/10/11 01:55:27;;;;;;;7.87;5.70;;;4.30;99.90;;;;;;4987597;28;20633;-82
2021/10/11 01:57:53;;;;;;;7.17;5.67;;;4.30;99.90;;;;;;5019713;28;20396;-81
2021/10/11 02:00:19;;;;;;;7.57;5.93;;;3.90;99.90;;;;;;5019485;28;20925;-82
2021/10/11 02:02:45;;;;;;;7.03;5.00;;;3.70;99.90;;;;;;5020953;28;20188;-80
2021/10/11 02:05:12;;;;;;;8.37;6.43;;;3.50;99.90;;;;;;5021200;28;20153;-81
2021/10/11 02:07:37;;;;;;;7.00;5.43;;;3.50;99.90;;;;;;5020842;28;20527;-81
2021/10/11 02:10:04;;;;;;;10.10;6.23;;;3.50;99.90;;;;;;5021191;28;20872;-82
2021/10/11 02:12:30;;;;;;;5.70;5.23;;;3.50;99.90;;;;;;5020617;28;20168;-81
2021/10/11 02:14:57;;;;;;;9.50;6.50;;;3.30;99.90;;;;;;5021153;28;20432;-82
2021/10/11 02:17:23;;;;;;;7.70;5.70;;;3.40;99.90;;;;;;5020338;28;20168;-81
2021/10/11 02:19:49;;;;;;;6.93;5.30;;;3.30;99.90;;;;;;5020486;28;20391;-81
2021/10/11 02:22:15;;;;;;;8.63;6.60;;;3.60;99.90;;;;;;5020592;28;20518;-82
2021/10/11 02:24:41;;;;;;;8.97;6.40;;;3.50;99.90;;;;;;5020594;28;20225;-82
2021/10/11 02:27:08;;;;;;;8.93;6.03;;;3.60;99.90;;;;;;5021314;28;20177;-82
2021/10/11 02:29:34;;;;;;;6.63;6.00;;;3.50;99.90;;;;;;5020669;28;20384;-81
2021/10/11 02:32:00;;;;;;;8.63;5.30;;;3.60;99.90;;;;;;5020913;28;20484;-82
2021/10/11 02:34:25;;;;;;;8.70;5.53;;;3.70;99.90;;;;;;5021461;28;20435;-82
2021/10/11 02:36:51;;;;;;;6.77;5.60;;;4.00;99.90;;;;;;5024471;28;20181;-82
2021/10/11 02:39:17;;;;;;;7.80;5.83;;;3.90;99.90;;;;;;5030293;28;20610;-82
2021/10/11 02:41:43;;;;;;;10.10;5.50;;;3.60;99.90;;;;;;5027274;28;20255;-81
2021/10/11 02:44:09;;;;;;;9.33;6.50;;;3.60;99.90;;;;;;5033356;28;20158;-80
2021/10/11 02:46:35;;;;;;;6.50;5.60;;;3.40;99.90;;;;;;5033499;28;20405;-80
2021/10/11 02:49:01;;;;;;;12.23;5.83;;;3.10;99.90;;;;;;5032789;28;20181;-80
2021/10/11 02:51:27;;;;;;;5.43;4.93;;;3.10;99.90;;;;;;5032921;28;20189;-78
2021/10/11 02:53:52;;;;;;;6.13;5.53;;;3.20;99.90;;;;;;5034018;28;20447;-79
2021/10/11 02:56:19;;;;;;;9.70;6.23;;;3.30;99.90;;;;;;5030417;28;20523;-81
2021/10/11 02:58:46;;;;;;;8.00;6.33;;;3.40;99.90;;;;;;5021406;28;20276;-82
2021/10/11 03:01:12;;;;;;;12.17;8.13;;;3.30;99.90;;;;;;5018606;28;20451;-83
2021/10/11 03:03:38;;;;;;;8.17;5.70;;;2.90;99.90;;;;;;5019262;28;20385;-82
2021/10/11 03:06:05;;;;;;;8.60;6.20;;;2.90;99.90;;;;;;5020579;28;20403;-82
2021/10/11 03:08:36;;;;;;;7.00;5.83;;;2.60;99.90;;;;;;5020221;28;20400;-81
2021/10/11 03:11:03;;;;;;;6.50;5.30;;;2.50;99.90;;;;;;5019941;28;20396;-82
2021/10/11 03:13:29;;;;;;;9.37;6.67;;;2.60;99.90;;;;;;5019874;28;20400;-81
2021/10/11 03:15:55;;;;;;;8.00;6.03;;;2.60;99.90;;;;;;5020534;28;20412;-81
2021/10/11 03:18:21;;;;;;;9.33;6.17;;;2.60;99.90;;;;;;5020235;28;20443;-82
2021/10/11 03:20:47;;;;;;;10.47;5.53;;;2.40;99.90;;;;;;5020138;28;20463;-79
2021/10/11 03:23:13;;;;;;;11.93;5.57;;;2.30;99.90;;;;;;5023275;28;20161;-81
2021/10/11 03:25:39;;;;;;;10.20;6.17;;;2.00;99.90;;;;;;5029500;28;20488;-81
2021/10/11 03:28:05;;;;;;;6.03;5.40;;;2.20;99.90;;;;;;5027153;28;20169;-82
2021/10/11 03:30:32;;;;;;;11.00;5.30;;;2.40;99.90;;;;;;5028403;28;20473;-80
2021/10/11 03:32:58;;;;;;;5.60;5.10;;;2.40;99.90;;;;;;5022115;28;20229;-81
2021/10/11 03:35:24;;;;;;;6.33;5.73;;;2.50;99.90;;;;;;5017953;28;20397;-81
2021/10/11 03:37:51;;;;;;;8.27;6.13;;;2.40;99.90;;;;;;5019324;28;20439;-82
2021/10/11 03:40:17;;;;;;;9.03;4.93;;;2.40;99.90;;;;;;5018909;28;20464;-82
2021/10/11 03:42:43;;;;;;;5.80;5.03;;;2.40;99.90;;;;;;5018948;28;20388;-82
2021/10/11 03:45:11;;;;;;;6.47;5.87;;;2.10;99.90;;;;;;5020118;28;20397;-83
2021/10/11 03:47:38;;;;;;;6.20;5.70;;;2.20;99.90;;;;;;5016052;28;20416;-81
2021/10/11 03:50:05;;;;;;;4.53;4.10;;;2.20;99.90;;;;;;5018014;28;20507;-82
2021/10/11 03:52:31;;;;;;;8.87;6.53;;;2.10;99.90;;;;;;5018456;28;20893;-82
2021/10/11 03:54:57;;;;;;;7.50;5.30;;;2.20;99.90;;;;;;5018349;28;20486;-82
2021/10/11 03:57:24;;;;;;;7.10;5.50;;;2.40;99.90;;;;;;5019486;28;20165;-81
2021/10/11 03:59:50;;;;;;;6.40;5.80;;;2.60;99.90;;;;;;5017137;28;20412;-82
2021/10/11 04:02:16;;;;;;;8.13;6.33;;;2.70;99.90;;;;;;5018474;28;20498;-82
2021/10/11 04:04:41;;;;;;;9.47;5.67;;;2.80;99.90;;;;;;5016385;28;20438;-82
2021/10/11 04:07:10;;;;;;;7.53;5.90;;;2.90;99.90;;;;;;5018785;28;20491;-81
2021/10/11 04:09:38;;;;;;;10.20;4.93;;;2.90;99.90;;;;;;5018289;28;20221;-82
2021/10/11 04:12:08;;;;;;;7.93;6.23;;;2.60;99.90;;;;;;5018266;28;20401;-82
2021/10/11 04:14:35;;;;;;;7.47;6.77;;;2.70;99.90;;;;;;5018558;28;20423;-82
2021/10/11 04:17:01;;;;;;;7.03;5.60;;;3.00;99.90;;;;;;5002102;28;20405;-83
2021/10/11 04:19:28;;;;;;;12.27;6.83;;;3.30;99.90;;;;;;5019413;28;20401;-83
2021/10/11 04:21:53;;;;;;;12.37;7.17;;;3.70;99.90;;;;;;5017227;28;20534;-81
2021/10/11 04:24:19;;;;;;;8.13;7.43;;;4.00;99.90;;;;;;5028416;28;20463;-79
2021/10/11 04:26:48;;;;;;;13.60;7.93;;;4.30;99.90;;;;;;5027016;28;20160;-81
2021/10/11 04:29:17;;;;;;;7.80;6.63;;;4.50;99.90;;;;;;5019071;28;20476;-82
2021/10/11 04:31:43;;;;;;;6.70;6.03;;;4.60;99.90;;;;;;5001154;28;20161;-81
2021/10/11 04:34:09;;;;;;;6.90;6.30;;;4.70;99.90;;;;;;5019726;28;20459;-83
2021/10/11 04:36:35;;;;;;;7.30;6.60;;;4.80;99.90;;;;;;5018699;28;20173;-82
2021/10/11 04:39:00;;;;;;;16.13;7.77;;;4.90;99.90;;;;;;5018381;28;20696;-82
2021/10/11 04:41:26;;;;;;;8.17;7.37;;;4.60;99.90;;;;;;5019209;28;20451;-83
2021/10/11 04:43:52;;;;;;;8.00;6.93;;;4.30;99.90;;;;;;5017902;28;20162;-82
2021/10/11 04:46:19;;;;;;;8.83;6.37;;;4.10;99.90;;;;;;5019522;28;20161;-83
2021/10/11 04:48:45;;;;;;;10.73;6.50;;;4.00;99.90;;;;;;5018733;28;20161;-83
2021/10/11 04:51:11;;;;;;;7.73;6.30;;;3.90;99.90;;;;;;5018402;28;20880;-83
2021/10/11 04:53:36;;;;;;;9.20;6.60;;;3.50;99.90;;;;;;5018616;28;20165;-82
2021/10/11 04:56:02;;;;;;;11.83;6.27;;;3.30;99.90;;;;;;5017227;28;20191;-82
2021/10/11 04:58:28;;;;;;;8.20;6.50;;;2.90;99.90;;;;;;5018293;28;20173;-81
2021/10/11 05:00:54;;;;;;;9.03;6.33;;;2.80;99.90;;;;;;5017911;28;20460;-82
2021/10/11 05:03:20;;;;;;;6.87;5.73;;;3.00;99.90;;;;;;5018311;28;20272;-81
2021/10/11 05:05:45;;;;;;;13.33;7.10;;;3.20;99.90;;;;;;5018244;28;20168;-81
2021/10/11 05:08:17;;;;;;;8.13;6.40;;;3.40;99.90;;;;;;5011704;28;20186;-79
2021/10/11 05:10:43;;;;;;;8.87;6.63;;;3.20;99.90;;;;;;5011406;28;20295;-80
2021/10/11 05:13:09;;;;;;;9.70;6.87;;;3.40;99.90;;;;;;5026122;28;20428;-83
2021/10/11 05:15:37;;;;;;;11.83;8.77;;;3.30;99.90;;;;;;5022311;28;20181;-83
2021/10/11 05:18:06;;;;;;;7.33;6.63;;;3.30;99.90;;;;;;5005480;28;20184;-82
2021/10/11 05:20:36;;;;;;;7.23;5.50;;;2.90;99.90;;;;;;5022297;28;20440;-82
2021/10/11 05:23:03;;;;;;;9.00;6.30;;;2.60;99.90;;;;;;5022152;28;20173;-83
2021/10/11 05:25:29;;;;;;;8.90;5.70;;;2.60;99.90;;;;;;5021086;28;20499;-82
2021/10/11 05:27:56;;;;;;;10.40;8.00;;;2.50;99.90;;;;;;5021221;28;20435;-83
2021/10/11 05:30:22;;;;;;;10.53;7.00;;;2.30;99.90;;;;;;5021139;28;20165;-83
2021/10/11 05:32:48;;;;;;;5.87;5.23;;;2.40;99.90;;;;;;5021638;28;20459;-83
2021/10/11 05:35:16;;;;;;;9.80;6.87;;;2.10;99.90;;;;;;5022510;28;20412;-83
2021/10/11 05:37:42;;;;;;;7.70;6.93;;;2.40;99.90;;;;;;5021690;28;20188;-83
2021/10/11 05:40:09;;;;;;;8.00;6.03;;;2.40;99.90;;;;;;5024493;28;20408;-80
2021/10/11 05:42:35;;;;;;;6.60;5.97;;;2.60;99.90;;;;;;5022566;28;20173;-82
2021/10/11 05:45:01;;;;;;;8.27;6.00;;;2.70;99.90;;;;;;5023977;28;20439;-83
2021/10/11 05:47:26;;;;;;;7.90;6.10;;;3.10;99.90;;;;;;5024660;28;20419;-82
2021/10/11 05:49:52;;;;;;;6.73;6.03;;;2.50;99.90;;;;;;5021949;28;20396;-81
2021/10/11 05:52:18;;;;;;;9.60;6.33;;;2.80;99.90;;;;;;5022505;28;20173;-82
2021/10/11 05:54:44;;;;;;;6.43;5.70;;;2.60;99.90;;;;;;5021247;28;20257;-81
2021/10/11 05:57:09;;;;;;;7.23;6.53;;;2.60;99.90;;;;;;5022942;28;20176;-83
2021/10/11 05:59:35;;;;;;;6.23;5.10;;;2.70;99.90;;;;;;5023759;28;20200;-79
2021/10/11 06:02:01;;;;;;;8.90;6.10;;;2.70;99.90;;;;;;5022805;28;20293;-83
2021/10/11 06:04:27;;;;;;;11.27;7.70;;;3.00;99.90;;;;;;5022855;28;20160;-81
2021/10/11 06:06:52;;;;;;;7.90;5.97;;;3.00;99.90;;;;;;5027180;28;20269;-81
2021/10/11 06:09:18;;;;;;;8.83;5.60;;;2.80;99.90;;;;;;5029425;28;20157;-79
2021/10/11 06:11:46;;;;;;;9.23;5.77;;;2.90;99.90;;;;;;5030147;28;20204;-81
2021/10/11 06:14:11;;;;;;;9.53;7.10;;;3.00;99.90;;;;;;5029925;28;20249;-80
2021/10/11 06:16:37;;;;;;;9.77;7.47;;;3.10;99.90;;;;;;5029845;28;20455;-81
2021/10/11 06:19:04;;;;;;;10.07;6.60;;;3.30;99.90;;;;;;5026115;28;20193;-82
2021/10/11 06:21:30;;;;;;;15.23;7.50;;;3.70;99.90;;;;;;5024679;28;20868;-79
2021/10/11 06:23:57;;;;;;;7.80;7.03;;;3.70;99.90;;;;;;5022268;28;20519;-82
2021/10/11 06:26:23;;;;;;;12.00;7.57;;;3.70;99.90;;;;;;5025051;28;20174;-80
2021/10/11 06:28:49;;;;;;;9.40;6.63;;;3.80;99.90;;;;;;5024363;28;20420;-82
2021/10/11 06:31:16;;;;;;;11.03;5.87;;;3.50;99.90;;;;;;5021256;28;20186;-82
2021/10/11 06:33:41;;;;;;;9.03;7.13;;;3.30;99.90;;;;;;5024469;28;20529;-80
2021/10/11 06:36:07;;;;;;;6.57;5.80;;;3.40;99.90;;;;;;5021918;28;20490;-81
2021/10/11 06:38:35;;;;;;;8.60;7.47;;;3.40;99.90;;;;;;5020569;28;20170;-83
2021/10/11 06:41:02;;;;;;;10.67;7.00;;;3.40;99.90;;;;;;5014207;28;20228;-82
2021/10/11 06:43:28;;;;;;;7.70;6.30;;;3.60;99.90;;;;;;4994493;28;20448;-82
2021/10/11 06:45:53;;;;;;;8.80;6.97;;;4.00;99.90;;;;;;5011179;28;20448;-82
2021/10/11 06:48:20;;;;;;;9.80;7.33;;;4.10;99.90;;;;;;5015449;28;20192;-81
2021/10/11 06:50:46;;;;;;;12.70;7.13;;;4.30;99.90;;;;;;5017902;28;20200;-82
2021/10/11 06:53:12;;;;;;;17.90;9.13;;;4.60;99.90;;;;;;5011426;28;20451;-82
2021/10/11 06:55:38;;;;;;;12.63;8.00;;;4.60;99.90;;;;;;5014973;28;20821;-82
2021/10/11 06:58:04;;;;;;;11.03;9.10;;;4.80;99.90;;;;;;5015641;28;20440;-82
2021/10/11 07:00:30;;;;;;;8.53;7.57;;;5.00;99.90;;;;;;5012015;28;20478;-81
2021/10/11 07:02:56;;;;;;;8.50;7.37;;;4.80;99.90;;;;;;5017042;28;20194;-81
2021/10/11 07:05:22;;;;;;;14.23;7.87;;;4.80;99.90;;;;;;5023059;28;20185;-79
2021/10/11 07:07:47;;;;;;;10.47;8.13;;;5.00;99.90;;;;;;5025860;28;20200;-79
2021/10/11 07:10:14;;;;;;;17.17;10.23;;;5.00;99.90;;;;;;5027906;28;20193;-81
2021/10/11 07:12:43;;;;;;;11.63;8.70;;;5.20;99.90;;;;;;5019750;28;20185;-81
2021/10/11 07:15:10;;;;;;;9.13;7.17;;;5.10;99.90;;;;;;5019806;28;20527;-82
2021/10/11 07:17:36;;;;;;;9.93;7.60;;;5.80;99.90;;;;;;5018756;28;20467;-82
2021/10/11 07:20:03;;;;;;;10.07;8.53;;;6.20;99.90;;;;;;5022401;28;20796;-79
2021/10/11 07:22:29;;;;;;;8.90;7.27;;;5.70;99.90;;;;;;5022207;28;20463;-81
2021/10/11 07:24:55;;;;;;;10.87;7.70;;;5.80;99.90;;;;;;5019244;28;20462;-82
2021/10/11 07:27:20;;;;;;;12.10;7.43;;;5.70;99.90;;;;;;5017017;28;20188;-78
2021/10/11 07:29:46;;;;;;;10.27;6.83;;;5.30;99.90;;;;;;5015693;28;20193;-82
2021/10/11 07:32:12;;;;;;;9.63;7.20;;;5.40;99.90;;;;;;5020644;28;20246;-80
2021/10/11 07:34:40;;;;;;;12.00;7.87;;;5.30;99.90;;;;;;5017995;28;20193;-81
2021/10/11 07:37:06;;;;;;;24.27;9.53;;;5.80;99.90;;;;;;5015594;28;20436;-81
2021/10/11 07:39:33;;;;;;;11.63;7.30;;;5.60;99.90;;;;;;5019587;28;20486;-79
2021/10/11 07:42:00;;;;;;;13.43;8.40;;;5.60;99.90;;;;;;5022042;28;20208;-82
2021/10/11 07:44:27;;;;;;;13.50;8.43;;;5.80;99.90;;;;;;5015466;28;20929;-82
2021/10/11 07:46:54;;;;;;;12.93;8.30;;;5.80;99.90;;;;;;5007673;28;20435;-82
2021/10/11 07:49:21;;;;;;;16.17;9.30;;;6.20;99.90;;;;;;5016648;28;20432;-82
2021/10/11 07:51:48;;;;;;;15.47;8.60;;;6.50;99.90;;;;;;5015951;28;20448;-81
2021/10/11 07:54:16;;;;;;;12.40;9.60;;;6.30;99.90;;;;;;5011722;28;20495;-82
2021/10/11 07:56:43;;;;;;;9.20;7.50;;;6.70;99.90;;;;;;5013122;28;20447;-81
2021/10/11 07:59:09;;;;;;;10.53;8.27;;;6.50;99.90;;;;;;5013946;28;20444;-81
2021/10/11 08:01:35;;;;;;;12.87;8.53;;;7.00;99.90;;;;;;5012129;28;20517;-81
2021/10/11 08:04:03;;;;;;;11.57;9.07;;;7.00;99.90;;;;;;5013490;28;20188;-83
2021/10/11 08:06:30;;;;;;;15.10;8.53;;;7.10;99.90;;;;;;5011517;28;20943;-82
2021/10/11 08:08:56;;;;;;;12.37;8.47;;;6.90;99.90;;;;;;5006448;28;20433;-82
2021/10/11 08:11:22;;;;;;;11.07;8.97;;;7.40;99.90;;;;;;5012053;28;20432;-83
2021/10/11 08:13:48;;;;;;;13.23;8.77;;;7.40;99.90;;;;;;5013622;28;20440;-81
2021/10/11 08:16:14;;;;;;;15.07;9.00;;;8.00;99.90;;;;;;5016517;28;20203;-82
2021/10/11 08:18:42;;;;;;;12.10;7.90;;;7.80;99.90;;;;;;5013642;28;20185;-80
2021/10/11 08:21:08;;;;;;;13.83;8.33;;;7.40;99.90;;;;;;5011713;28;20217;-82
2021/10/11 08:23:39;;;;;;;14.53;8.57;;;7.50;99.90;;;;;;5016510;28;20799;-82
2021/10/11 08:26:08;;;;;;;9.87;8.40;;;8.30;99.90;;;;;;5010917;28;20181;-82
2021/10/11 08:28:34;;;;;;;11.97;9.13;;;9.30;99.90;;;;;;5012115;28;20442;-83
2021/10/11 08:31:00;;;;;;;12.10;8.70;;;9.50;99.90;;;;;;5014537;28;20554;-82
2021/10/11 08:33:26;;;;;;;21.33;11.57;;;9.20;99.90;;;;;;5016724;28;20542;-80
2021/10/11 08:35:52;;;;;;;13.10;8.70;;;9.00;99.90;;;;;;4996327;28;20454;-82
2021/10/11 08:38:18;;;;;;;13.70;9.10;;;8.80;99.90;;;;;;5017399;28;20579;-83
2021/10/11 08:40:47;;;;;;;10.33;9.23;;;9.40;99.90;;;;;;5015484;28;20662;-81
2021/10/11 08:43:13;;;;;;;12.27;9.23;;;10.40;99.90;;;;;;5017504;28;20210;-82
2021/10/11 08:45:42;;;;;;;8.17;7.37;;;10.90;99.90;;;;;;5013982;28;20436;-83
2021/10/11 08:48:11;;;;;;;14.30;9.83;;;11.80;99.90;;;;;;5012431;28;20284;-79
2021/10/11 08:50:37;;;;;;;14.83;8.40;;;11.70;99.90;;;;;;5013889;28;20447;-83
2021/10/11 08:53:03;;;;;;;12.43;8.03;;;11.80;99.90;;;;;;5014425;28;20432;-83
2021/10/11 08:55:30;;;;;;;11.90;8.43;;;10.90;99.90;;;;;;5015976;28;20476;-82
2021/10/11 08:58:02;;;;;;;10.07;7.87;;;10.80;99.90;;;;;;5015778;28;20451;-82
2021/10/11 09:00:33;;;;;;;13.33;9.50;;;12.00;99.90;;;;;;5014434;28;20952;-82
2021/10/11 09:03:00;;;;;;;12.57;7.90;;;12.90;99.90;;;;;;4978033;28;20428;-83
2021/10/11 09:05:33;;;;;;;10.73;9.13;;;12.50;99.90;;;;;;5013721;28;20554;-81
2021/10/11 09:08:14;;;;;;;12.73;8.70;;;12.90;99.90;;;;;;5011136;28;20881;-82
2021/10/11 09:10:53;;;;;;;15.13;9.93;;;13.50;99.90;;;;;;5015447;28;20508;-82
2021/10/11 09:13:22;;;;;;;9.50;7.90;;;12.50;99.90;;;;;;5015157;28;20557;-80
2021/10/11 09:16:12;;;;;;;14.37;8.90;;;12.50;99.90;;;;;;5014646;28;20930;-82
2021/10/11 09:18:40;;;;;;;14.80;10.07;;;12.80;99.90;;;;;;5013331;28;20444;-80
2021/10/11 09:21:08;;;;;;;11.93;9.43;;;12.60;99.90;;;;;;5019105;28;20531;-84
2021/10/11 09:23:34;;;;;;;15.37;8.90;;;13.90;99.90;;;;;;5007444;28;20436;-82
2021/10/11 09:26:12;;;;;;;16.93;10.77;;;15.20;99.90;;;;;;5015096;28;20499;-83
2021/10/11 09:28:50;;;;;;;10.93;8.30;;;16.10;99.90;;;;;;5013519;28;20660;-82
2021/10/11 09:31:16;;;;;;;9.37;8.47;;;17.30;99.90;;;;;;5008656;28;20503;-83
2021/10/11 09:33:42;;;;;;;12.83;9.30;;;14.90;99.90;;;;;;5013622;28;20808;-82
2021/10/11 09:36:08;;;;;;;14.10;10.27;;;15.20;99.90;;;;;;5012359;28;20555;-83
2021/10/11 09:38:37;;;;;;;11.00;9.00;;;15.20;99.90;;;;;;4998459;28;20183;-83
2021/10/11 09:41:03;;;;;;;12.50;8.73;;;15.80;99.90;;;;;;4997252;28;20631;-83
2021/10/11 09:43:30;;;;;;;13.30;9.53;;;16.30;99.90;;;;;;5015362;28;20455;-82
2021/10/11 09:46:10;;;;;;;10.53;9.43;;;16.40;99.90;;;;;;5012986;28;20228;-82
2021/10/11 09:48:48;;;;;;;9.63;8.63;;;14.80;99.90;;;;;;5013971;28;20436;-82
2021/10/11 09:51:14;;;;;;;13.73;9.70;;;15.90;99.90;;;;;;5011664;28;20546;-82
2021/10/11 09:53:40;;;;;;;12.57;9.53;;;14.80;99.90;;;;;;5009409;28;20440;-81
2021/10/11 09:56:06;;;;;;;9.93;8.97;;;14.60;99.90;;;;;;5014062;28;20216;-81
2021/10/11 09:58:33;;;;;;;12.03;10.03;;;15.40;99.90;;;;;;5012988;28;20455;-82
2021/10/11 10:01:04;;;;;;;12.47;10.20;;;14.70;99.90;;;;;;5014809;28;20217;-82
2021/10/11 10:03:36;;;;;;;12.77;8.57;;;14.90;99.90;;;;;;5035701;28;20436;-82
2021/10/11 10:06:07;;;;;;;12.63;9.53;;;13.90;99.90;;;;;;5015433;28;20431;-82
2021/10/11 10:08:37;;;;;;;13.13;11.77;;;15.00;99.90;;;;;;4999204;28;20912;-81
2021/10/11 10:11:04;;;;;;;12.73;9.50;;;14.70;99.90;;;;;;4990512;28;20510;-83
2021/10/11 10:13:36;;;;;;;11.00;9.50;;;14.70;99.90;;;;;;4987318;28;20451;-83
2021/10/11 10:16:10;;;;;;;13.17;9.73;;;16.00;99.90;;;;;;5016360;28;20439;-81
2021/10/11 10:18:39;;;;;;;16.70;10.07;;;15.90;99.90;;;;;;5012252;28;20435;-84
2021/10/11 10:21:05;;;;;;;12.67;10.50;;;15.70;99.90;;;;;;5012339;28;20562;-83
2021/10/11 10:23:33;;;;;;;13.20;10.70;;;16.00;99.90;;;;;;5011878;28;20475;-83
2021/10/11 10:26:02;;;;;;;12.73;10.07;;;14.80;99.90;;;;;;5013804;28;20444;-83
2021/10/11 10:28:44;;;;;;;17.70;9.90;;;14.60;99.90;;;;;;4991299;28;20435;-84
2021/10/11 10:31:11;;;;;;;11.40;9.57;;;15.30;99.90;;;;;;4993876;28;20475;-83
2021/10/11 10:33:40;;;;;;;11.77;9.67;;;15.70;99.90;;;;;;4999480;28;20574;-83
2021/10/11 10:36:22;;;;;;;15.20;10.60;;;15.80;99.90;;;;;;5017408;28;20447;-83
2021/10/11 10:38:58;;;;;;;17.60;10.07;;;14.90;99.90;;;;;;5000214;28;20439;-81
2021/10/11 10:41:24;;;;;;;13.03;10.67;;;16.80;99.90;;;;;;5014458;28;20939;-83
2021/10/11 10:43:50;;;;;;;13.53;10.70;;;16.10;99.90;;;;;;4997243;28;20440;-83
2021/10/11 10:46:19;;;;;;;13.57;11.30;;;15.30;99.90;;;;;;4999314;28;21359;-83
2021/10/11 10:48:49;;;;;;;17.03;10.90;;;14.60;99.90;;;;;;5017741;28;20197;-82
2021/10/11 10:51:16;;;;;;;15.60;11.10;;;13.80;99.90;;;;;;5010116;28;20454;-83
2021/10/11 10:53:54;;;;;;;14.60;11.73;;;14.70;99.90;;;;;;5016014;28;20474;-82
2021/10/11 10:56:20;;;;;;;14.77;11.83;;;14.80;99.90;;;;;;4998140;28;20441;-83
2021/10/11 10:59:00;;;;;;;15.73;11.33;;;14.40;99.90;;;;;;5015305;28;20574;-81
2021/10/11 11:01:28;;;;;;;13.27;10.63;;;14.10;99.90;;;;;;5002130;28;20467;-83
2021/10/11 11:04:22;;;;;;;14.13;10.50;;;14.50;99.90;;;;;;5017959;28;20472;-83
2021/10/11 11:06:59;;;;;;;15.70;11.50;;;14.50;99.90;;;;;;5000905;28;20969;-83
2021/10/11 11:09:36;;;;;;;21.10;11.40;;;14.50;99.90;;;;;;5015120;28;20431;-83
2021/10/11 11:12:02;;;;;;;14.23;11.93;;;14.70;99.90;;;;;;4999167;28;20424;-83
2021/10/11 11:14:30;;;;;;;12.67;11.07;;;14.10;99.90;;;;;;5011195;28;20879;-84
2021/10/11 11:16:56;;;;;;;16.97;12.93;;;14.60;99.90;;;;;;5015482;28;20551;-84
2021/10/11 11:19:22;;;;;;;19.47;10.50;;;14.80;99.90;;;;;;5012294;28;20440;-82
2021/10/11 11:21:56;;;;;;;13.20;11.80;;;14.90;99.90;;;;;;5010697;28;20319;-83
2021/10/11 11:24:21;;;;;;;15.03;9.90;;;15.00;99.90;;;;;;4979849;28;20191;-80
2021/10/11 11:26:47;;;;;;;14.20;11.83;;;14.90;99.90;;;;;;5016712;28;20536;-80
2021/10/11 11:29:15;;;;;;;16.33;12.07;;;14.40;99.90;;;;;;5005245;28;20194;-79
2021/10/11 11:31:50;;;;;;;15.77;12.30;;;14.50;99.90;;;;;;5009358;28;20231;-81
2021/10/11 11:34:16;;;;;;;16.30;11.43;;;14.60;99.90;;;;;;4978071;28;20447;-80
2021/10/11 11:36:53;;;;;;;17.77;12.10;;;14.80;99.90;;;;;;4981412;28;20956;-78
2021/10/11 11:39:20;;;;;;;17.07;12.77;;;14.80;99.90;;;;;;4996875;28;20240;-80
2021/10/11 11:41:52;;;;;;;19.90;11.07;;;14.70;99.90;;;;;;4993071;28;20463;-80
2021/10/11 11:44:24;;;;;;;12.80;10.90;;;14.60;99.90;;;;;;4995045;28;20503;-78
2021/10/11 11:47:07;;;;;;;17.40;11.00;;;14.30;99.90;;;;;;4992032;28;20793;-82
2021/10/11 11:49:36;;;;;;;16.80;12.60;;;14.30;99.90;;;;;;4996401;28;20451;-81
2021/10/11 11:52:08;;;;;;;18.93;10.97;;;14.30;99.90;;;;;;4999681;28;20551;-80
2021/10/11 11:54:35;;;;;;;12.27;10.10;;;14.30;99.90;;;;;;4938349;29;20456;-82
2021/10/11 11:57:01;;;;;;;13.20;10.73;;;14.30;99.90;;;;;;4952551;28;20506;-81
2021/10/11 11:59:28;;;;;;;12.77;9.67;;;14.20;99.90;;;;;;4951801;28;20458;-80
2021/10/11 12:01:56;;;;;;;12.33;10.93;;;14.00;99.90;;;;;;4954551;29;20478;-82
2021/10/11 12:04:22;;;;;;;14.80;13.03;;;13.80;99.90;;;;;;4940922;29;20462;-81
2021/10/11 12:06:48;;;;;;;20.63;11.50;;;13.70;99.90;;;;;;4951775;28;20499;-81
2021/10/11 12:09:21;;;;;;;16.83;12.67;;;13.60;99.90;;;;;;4935416;29;20916;-82
2021/10/11 12:11:48;;;;;;;18.10;12.47;;;13.60;99.90;;;;;;4952809;29;20443;-81
2021/10/11 12:14:25;;;;;;;21.70;15.47;;;13.60;99.90;;;;;;4950291;29;20438;-82
2021/10/11 12:16:59;;;;;;;23.47;15.33;;;13.60;99.90;;;;;;4953153;28;20932;-80
2021/10/11 12:19:29;;;;;;;19.50;15.10;;;13.60;99.90;;;;;;4939063;29;20946;-80
2021/10/11 12:21:56;;;;;;;21.70;14.60;;;13.50;99.90;;;;;;4936317;29;20482;-82
2021/10/11 12:24:25;;;;;;;19.83;13.87;;;13.50;99.90;;;;;;4938469;28;20981;-80
2021/10/11 12:26:54;;;;;;;22.80;16.00;;;13.50;99.90;;;;;;4970874;28;20926;-81
2021/10/11 12:29:21;;;;;;;24.23;15.80;;;13.40;99.90;;;;;;4967708;28;20441;-79
2021/10/11 12:32:01;;;;;;;24.43;16.77;;;13.20;99.90;;;;;;4981977;28;20491;-80
2021/10/11 12:34:31;;;;;;;29.30;15.37;;;13.10;99.90;;;;;;5025121;28;20442;-80
2021/10/11 12:36:58;;;;;;;25.33;15.27;;;13.10;99.90;;;;;;5015708;28;20494;-81
2021/10/11 12:39:34;;;;;;;17.90;14.40;;;13.00;99.90;;;;;;5015084;28;20436;-81
2021/10/11 12:42:02;;;;;;;16.50;13.33;;;13.10;99.90;;;;;;5017387;28;20936;-81
2021/10/11 12:44:38;;;;;;;16.70;12.67;;;13.10;99.90;;;;;;5015488;28;20455;-78
2021/10/11 12:47:05;;;;;;;20.43;15.00;;;13.00;99.90;;;;;;5009767;28;20436;-81